createdAt,value
2022-11-26T00:00:05.285Z,1006.78
2022-11-26T00:01:05.241Z,1006.80
2022-11-26T00:02:06.269Z,1006.83
2022-11-26T00:03:05.385Z,1006.83
2022-11-26T00:04:05.218Z,1006.82
2022-11-26T00:05:05.252Z,1006.80
2022-11-26T00:06:05.215Z,1006.80
2022-11-26T00:07:05.201Z,1006.86
2022-11-26T00:08:05.196Z,1006.87
2022-11-26T00:09:05.184Z,1006.89
2022-11-26T00:10:05.206Z,1006.86
2022-11-26T00:11:05.167Z,1006.82
2022-11-26T00:12:05.165Z,1006.91
2022-11-26T00:13:05.150Z,1006.95
2022-11-26T00:14:05.142Z,1006.87
2022-11-26T00:15:05.166Z,1006.92
2022-11-26T00:16:05.215Z,1006.90
2022-11-26T00:17:05.173Z,1006.91
2022-11-26T00:18:05.126Z,1006.91
2022-11-26T00:19:05.119Z,1006.95
2022-11-26T00:20:05.355Z,1006.94
2022-11-26T00:21:05.094Z,1006.94
2022-11-26T00:22:05.085Z,1006.97
2022-11-26T00:23:05.069Z,1006.99
2022-11-26T00:24:05.064Z,1006.93
2022-11-26T00:25:05.058Z,1006.97
2022-11-26T00:26:05.072Z,1007.00
2022-11-26T00:27:06.043Z,1006.99
2022-11-26T00:28:05.030Z,1007.00
2022-11-26T00:29:05.022Z,1007.02
2022-11-26T00:30:05.017Z,1007.05
2022-11-26T00:31:05.042Z,1007.00
2022-11-26T00:32:05.036Z,1007.06
2022-11-26T00:33:04.988Z,1007.02
2022-11-26T00:34:04.983Z,1007.05
2022-11-26T00:35:04.966Z,1007.07
2022-11-26T00:36:04.992Z,1007.08
2022-11-26T00:37:04.956Z,1007.08
2022-11-26T00:38:04.948Z,1007.13
2022-11-26T00:39:04.938Z,1007.12
2022-11-26T00:40:04.943Z,1007.11
2022-11-26T00:41:04.953Z,1007.16
2022-11-26T00:42:04.913Z,1007.15
2022-11-26T00:43:04.928Z,1007.17
2022-11-26T00:44:04.901Z,1007.15
2022-11-26T00:45:04.886Z,1007.15
2022-11-26T00:46:05.114Z,1007.15
2022-11-26T00:47:04.876Z,1007.08
2022-11-26T00:48:04.868Z,1007.15
2022-11-26T00:49:04.856Z,1007.18
2022-11-26T00:50:04.857Z,1007.16
2022-11-26T00:51:04.870Z,1007.20
2022-11-26T00:52:04.829Z,1007.21
2022-11-26T00:53:04.833Z,1007.17
2022-11-26T00:54:04.828Z,1007.14
2022-11-26T00:55:04.815Z,1007.24
2022-11-26T00:56:04.829Z,1007.25
2022-11-26T00:57:04.796Z,1007.26
2022-11-26T00:58:04.785Z,1007.23
2022-11-26T00:59:04.775Z,1007.29
2022-11-26T01:00:04.777Z,1007.28
2022-11-26T01:01:04.809Z,1007.32
2022-11-26T01:02:04.838Z,1007.38
2022-11-26T01:03:04.747Z,1007.32
2022-11-26T01:04:04.736Z,1007.30
2022-11-26T01:05:04.724Z,1007.35
2022-11-26T01:06:04.750Z,1007.37
2022-11-26T01:07:04.704Z,1007.38
2022-11-26T01:08:04.699Z,1007.43
2022-11-26T01:09:04.682Z,1007.40
2022-11-26T01:10:05.677Z,1007.42
2022-11-26T01:11:04.714Z,1007.42
2022-11-26T01:12:04.674Z,1007.46
2022-11-26T01:13:04.655Z,1007.48
2022-11-26T01:14:04.668Z,1007.46
2022-11-26T01:15:04.631Z,1007.48
2022-11-26T01:16:04.764Z,1007.43
2022-11-26T01:17:04.622Z,1007.48
2022-11-26T01:18:04.617Z,1007.47
2022-11-26T01:19:04.684Z,1007.48
2022-11-26T01:20:04.602Z,1007.42
2022-11-26T01:21:04.614Z,1007.51
2022-11-26T01:22:04.579Z,1007.52
2022-11-26T01:23:04.576Z,1007.56
2022-11-26T01:24:04.579Z,1007.54
2022-11-26T01:25:04.564Z,1007.52
2022-11-26T01:26:06.608Z,1007.55
2022-11-26T01:27:05.540Z,1007.54
2022-11-26T01:28:04.533Z,1007.55
2022-11-26T01:29:04.529Z,1007.57
2022-11-26T01:30:04.514Z,1007.62
2022-11-26T01:31:04.536Z,1007.62
2022-11-26T01:32:04.581Z,1007.64
2022-11-26T01:33:04.506Z,1007.62
2022-11-26T01:34:04.490Z,1007.70
2022-11-26T01:35:04.478Z,1007.78
2022-11-26T01:36:04.490Z,1007.73
2022-11-26T01:37:04.460Z,1007.78
2022-11-26T01:38:04.463Z,1007.80
2022-11-26T01:39:04.445Z,1007.75
2022-11-26T01:40:04.433Z,1007.76
2022-11-26T01:41:04.479Z,1007.69
2022-11-26T01:42:04.405Z,1007.68
2022-11-26T01:43:04.411Z,1007.65
2022-11-26T01:44:04.397Z,1007.75
2022-11-26T01:45:04.383Z,1007.72
2022-11-26T01:46:04.428Z,1007.72
2022-11-26T01:47:04.396Z,1007.78
2022-11-26T01:48:04.359Z,1007.73
2022-11-26T01:49:04.357Z,1007.76
2022-11-26T01:50:04.344Z,1007.73
2022-11-26T01:51:04.344Z,1007.78
2022-11-26T01:52:04.455Z,1007.86
2022-11-26T01:53:04.328Z,1007.89
2022-11-26T01:54:04.312Z,1007.86
2022-11-26T01:55:04.305Z,1007.87
2022-11-26T01:56:04.295Z,1007.95
2022-11-26T01:57:04.312Z,1007.95
2022-11-26T01:58:04.273Z,1007.94
2022-11-26T01:59:29.934Z,1007.92
2022-11-26T02:00:04.275Z,1007.87
2022-11-26T02:01:04.309Z,1007.91
2022-11-26T02:02:04.307Z,1007.89
2022-11-26T02:03:04.236Z,1007.86
2022-11-26T02:04:04.230Z,1007.96
2022-11-26T02:05:04.215Z,1007.90
2022-11-26T02:06:04.209Z,1007.89
2022-11-26T02:07:04.232Z,1007.89
2022-11-26T02:08:04.188Z,1007.84
2022-11-26T02:09:04.184Z,1007.92
2022-11-26T02:10:04.172Z,1007.91
2022-11-26T02:11:04.161Z,1007.91
2022-11-26T02:12:04.189Z,1007.95
2022-11-26T02:13:04.146Z,1007.91
2022-11-26T02:14:04.137Z,1007.96
2022-11-26T02:15:04.135Z,1007.96
2022-11-26T02:16:04.214Z,1007.94
2022-11-26T02:17:04.168Z,1007.94
2022-11-26T02:18:04.112Z,1007.98
2022-11-26T02:19:04.098Z,1007.96
2022-11-26T02:20:04.096Z,1008.00
2022-11-26T02:21:04.077Z,1007.98
2022-11-26T02:22:05.110Z,1007.98
2022-11-26T02:23:04.071Z,1008.02
2022-11-26T02:24:04.057Z,1008.05
2022-11-26T02:25:04.050Z,1008.04
2022-11-26T02:26:04.044Z,1008.00
2022-11-26T02:27:04.076Z,1008.04
2022-11-26T02:28:04.030Z,1008.05
2022-11-26T02:29:04.020Z,1008.07
2022-11-26T02:30:04.014Z,1008.10
2022-11-26T02:31:04.006Z,1008.12
2022-11-26T02:32:04.073Z,1008.18
2022-11-26T02:33:03.980Z,1008.14
2022-11-26T02:34:03.980Z,1008.16
2022-11-26T02:35:03.973Z,1008.23
2022-11-26T02:36:03.962Z,1008.23
2022-11-26T02:37:03.982Z,1008.29
2022-11-26T02:38:03.947Z,1008.32
2022-11-26T02:39:03.943Z,1008.34
2022-11-26T02:40:03.925Z,1008.35
2022-11-26T02:41:03.921Z,1008.27
2022-11-26T02:42:03.940Z,1008.36
2022-11-26T02:43:03.900Z,1008.40
2022-11-26T02:44:03.897Z,1008.38
2022-11-26T02:45:03.880Z,1008.38
2022-11-26T02:46:03.951Z,1008.44
2022-11-26T02:47:03.903Z,1008.38
2022-11-26T02:48:03.867Z,1008.45
2022-11-26T02:49:03.851Z,1008.46
2022-11-26T02:50:03.843Z,1008.48
2022-11-26T02:51:03.844Z,1008.55
2022-11-26T02:52:03.862Z,1008.54
2022-11-26T02:53:03.818Z,1008.55
2022-11-26T02:54:03.816Z,1008.55
2022-11-26T02:55:03.814Z,1008.58
2022-11-26T02:56:03.794Z,1008.53
2022-11-26T02:57:03.822Z,1008.58
2022-11-26T02:58:03.782Z,1008.61
2022-11-26T02:59:03.788Z,1008.65
2022-11-26T03:00:03.764Z,1008.62
2022-11-26T03:01:03.845Z,1008.64
2022-11-26T03:02:03.747Z,1008.66
2022-11-26T03:03:03.770Z,1008.67
2022-11-26T03:04:03.772Z,1008.71
2022-11-26T03:05:03.714Z,1008.68
2022-11-26T03:06:03.710Z,1008.69
2022-11-26T03:07:03.704Z,1008.72
2022-11-26T03:08:03.727Z,1008.68
2022-11-26T03:09:03.704Z,1008.70
2022-11-26T03:10:03.679Z,1008.76
2022-11-26T03:11:03.673Z,1008.80
2022-11-26T03:12:03.770Z,1008.78
2022-11-26T03:13:03.685Z,1008.83
2022-11-26T03:14:03.647Z,1008.86
2022-11-26T03:15:03.636Z,1008.82
2022-11-26T03:16:03.711Z,1008.82
2022-11-26T03:17:03.620Z,1008.89
2022-11-26T03:18:03.646Z,1008.84
2022-11-26T03:19:03.600Z,1008.88
2022-11-26T03:20:03.599Z,1008.90
2022-11-26T03:21:03.589Z,1008.90
2022-11-26T03:22:03.579Z,1008.83
2022-11-26T03:23:03.598Z,1008.90
2022-11-26T03:24:03.574Z,1008.93
2022-11-26T03:25:03.561Z,1008.90
2022-11-26T03:26:03.538Z,1008.96
2022-11-26T03:27:03.549Z,1008.94
2022-11-26T03:28:03.579Z,1008.98
2022-11-26T03:29:03.523Z,1008.99
2022-11-26T03:30:03.517Z,1008.95
2022-11-26T03:31:03.502Z,1009.02
2022-11-26T03:32:03.577Z,1008.97
2022-11-26T03:33:03.521Z,1008.96
2022-11-26T03:34:03.485Z,1008.98
2022-11-26T03:35:03.472Z,1009.05
2022-11-26T03:37:47.820Z,1009.10
2022-11-26T03:38:47.823Z,1009.10
2022-11-26T03:39:47.814Z,1009.08
2022-11-26T03:40:47.804Z,1009.06
2022-11-26T03:41:47.791Z,1009.16
2022-11-26T03:42:47.815Z,1009.15
2022-11-26T03:43:47.772Z,1009.05
2022-11-26T03:44:47.766Z,1009.20
2022-11-26T03:45:47.821Z,1009.14
2022-11-26T03:46:47.754Z,1009.18
2022-11-26T03:47:47.771Z,1009.22
2022-11-26T03:48:48.882Z,1009.16
2022-11-26T03:49:48.870Z,1009.19
2022-11-26T03:50:48.866Z,1009.23
2022-11-26T03:51:48.848Z,1009.13
2022-11-26T03:52:48.877Z,1009.13
2022-11-26T03:53:48.842Z,1009.19
2022-11-26T03:54:48.823Z,1009.16
2022-11-26T03:55:48.818Z,1009.20
2022-11-26T03:56:48.813Z,1009.19
2022-11-26T03:57:48.849Z,1009.16
2022-11-26T03:58:48.794Z,1009.21
2022-11-26T03:59:48.792Z,1009.21
2022-11-26T04:00:48.783Z,1009.21
2022-11-26T04:01:48.825Z,1009.20
2022-11-26T04:02:48.889Z,1009.24
2022-11-26T04:03:48.771Z,1009.19
2022-11-26T04:04:48.746Z,1009.21
2022-11-26T04:05:48.730Z,1009.26
2022-11-26T04:06:49.738Z,1009.26
2022-11-26T04:07:48.804Z,1009.27
2022-11-26T04:08:48.714Z,1009.29
2022-11-26T04:09:48.709Z,1009.29
2022-11-26T04:10:48.700Z,1009.28
2022-11-26T04:11:48.693Z,1009.36
2022-11-26T04:12:48.684Z,1009.39
2022-11-26T04:13:48.703Z,1009.35
2022-11-26T04:14:48.663Z,1009.44
2022-11-26T04:15:48.654Z,1009.46
2022-11-26T04:16:48.683Z,1009.43
2022-11-26T04:17:48.640Z,1009.38
2022-11-26T04:18:48.658Z,1009.48
2022-11-26T04:19:48.627Z,1009.43
2022-11-26T04:20:52.750Z,1009.45
2022-11-26T04:21:49.609Z,1009.43
2022-11-26T04:22:48.599Z,1009.41
2022-11-26T04:23:48.620Z,1009.40
2022-11-26T04:24:48.587Z,1009.48
2022-11-26T04:25:48.570Z,1009.47
2022-11-26T04:26:48.581Z,1009.48
2022-11-26T04:27:48.560Z,1009.46
2022-11-26T04:28:48.568Z,1009.49
2022-11-26T04:29:48.540Z,1009.53
2022-11-26T04:30:48.537Z,1009.48
2022-11-26T04:31:48.594Z,1009.48
2022-11-26T04:32:48.512Z,1009.54
2022-11-26T04:33:48.542Z,1009.50
2022-11-26T04:34:48.497Z,1009.45
2022-11-26T04:35:48.488Z,1009.47
2022-11-26T04:36:48.484Z,1009.48
2022-11-26T04:37:48.472Z,1009.48
2022-11-26T04:38:48.491Z,1009.51
2022-11-26T04:39:48.458Z,1009.57
2022-11-26T04:40:48.457Z,1009.48
2022-11-26T04:41:48.438Z,1009.48
2022-11-26T04:42:48.432Z,1009.48
2022-11-26T04:43:48.455Z,1009.57
2022-11-26T04:44:48.421Z,1009.56
2022-11-26T04:45:48.426Z,1009.54
2022-11-26T04:46:48.389Z,1009.54
2022-11-26T04:47:48.384Z,1009.58
2022-11-26T04:48:48.407Z,1009.59
2022-11-26T04:49:48.370Z,1009.59
2022-11-26T04:50:48.365Z,1009.62
2022-11-26T04:51:48.367Z,1009.63
2022-11-26T04:52:48.370Z,1009.65
2022-11-26T04:53:48.360Z,1009.62
2022-11-26T04:54:48.326Z,1009.60
2022-11-26T04:55:48.314Z,1009.60
2022-11-26T04:56:48.314Z,1009.60
2022-11-26T04:57:48.298Z,1009.64
2022-11-26T04:58:48.319Z,1009.61
2022-11-26T04:59:48.286Z,1009.66
2022-11-26T05:00:51.063Z,1009.61
2022-11-26T05:01:49.265Z,1009.56
2022-11-26T05:02:48.275Z,1009.59
2022-11-26T05:03:48.273Z,1009.62
2022-11-26T05:04:48.242Z,1009.64
2022-11-26T05:05:48.240Z,1009.61
2022-11-26T05:06:48.220Z,1009.60
2022-11-26T05:07:48.241Z,1009.64
2022-11-26T05:08:48.233Z,1009.74
2022-11-26T05:09:48.196Z,1009.68
2022-11-26T05:10:48.176Z,1009.72
2022-11-26T05:11:48.184Z,1009.69
2022-11-26T05:12:48.169Z,1009.69
2022-11-26T05:13:48.188Z,1009.67
2022-11-26T05:14:48.145Z,1009.74
2022-11-26T05:15:48.139Z,1009.73
2022-11-26T05:16:48.278Z,1009.77
2022-11-26T05:17:48.127Z,1009.84
2022-11-26T05:18:48.140Z,1009.91
2022-11-26T05:19:48.108Z,1009.97
2022-11-26T05:20:48.096Z,1009.91
2022-11-26T05:21:48.087Z,1009.97
2022-11-26T05:22:48.078Z,1009.91
2022-11-26T05:23:48.106Z,1009.96
2022-11-26T05:24:48.067Z,1009.93
2022-11-26T05:25:48.057Z,1009.97
2022-11-26T05:26:51.221Z,1009.92
2022-11-26T05:27:49.037Z,1009.93
2022-11-26T05:28:48.061Z,1009.94
2022-11-26T05:29:48.018Z,1009.92
2022-11-26T05:30:48.020Z,1009.94
2022-11-26T05:31:48.034Z,1009.87
2022-11-26T05:32:47.990Z,1009.91
2022-11-26T05:33:48.012Z,1009.89
2022-11-26T05:34:47.981Z,1009.95
2022-11-26T05:35:47.967Z,1009.90
2022-11-26T05:36:47.966Z,1009.90
2022-11-26T05:37:47.951Z,1009.89
2022-11-26T05:38:47.980Z,1009.89
2022-11-26T05:39:47.933Z,1009.94
2022-11-26T05:40:47.930Z,1009.93
2022-11-26T05:41:47.916Z,1009.95
2022-11-26T05:42:47.900Z,1009.93
2022-11-26T05:43:47.928Z,1009.91
2022-11-26T05:44:47.878Z,1009.91
2022-11-26T05:45:48.921Z,1009.88
2022-11-26T05:46:47.874Z,1009.91
2022-11-26T05:47:47.875Z,1009.93
2022-11-26T05:48:47.889Z,1009.91
2022-11-26T05:49:47.861Z,1009.93
2022-11-26T05:50:53.049Z,1009.98
2022-11-26T05:51:49.831Z,1010.01
2022-11-26T05:52:47.865Z,1010.06
2022-11-26T05:53:47.845Z,1010.06
2022-11-26T05:54:47.816Z,1010.08
2022-11-26T05:55:47.793Z,1010.03
2022-11-26T05:56:47.794Z,1010.08
2022-11-26T05:57:47.786Z,1010.12
2022-11-26T05:58:47.807Z,1010.11
2022-11-26T05:59:47.777Z,1010.18
2022-11-26T06:00:47.762Z,1010.22
2022-11-26T06:01:47.805Z,1010.26
2022-11-26T06:02:47.823Z,1010.20
2022-11-26T06:03:47.854Z,1010.28
2022-11-26T06:04:47.728Z,1010.23
2022-11-26T06:05:48.723Z,1010.24
2022-11-26T06:06:47.719Z,1010.27
2022-11-26T06:07:47.762Z,1010.27
2022-11-26T06:08:47.727Z,1010.25
2022-11-26T06:09:47.691Z,1010.27
2022-11-26T06:10:47.688Z,1010.30
2022-11-26T06:11:47.671Z,1010.34
2022-11-26T06:12:47.672Z,1010.38
2022-11-26T06:13:47.686Z,1010.29
2022-11-26T06:14:47.918Z,1010.35
2022-11-26T06:15:47.646Z,1010.28
2022-11-26T06:16:47.667Z,1010.36
2022-11-26T06:17:47.632Z,1010.39
2022-11-26T06:18:47.637Z,1010.39
2022-11-26T06:19:47.607Z,1010.38
2022-11-26T06:20:47.604Z,1010.41
2022-11-26T06:21:47.589Z,1010.43
2022-11-26T06:22:47.586Z,1010.50
2022-11-26T06:23:54.509Z,1010.45
2022-11-26T06:24:49.568Z,1010.48
2022-11-26T06:25:47.550Z,1010.50
2022-11-26T06:26:47.551Z,1010.51
2022-11-26T06:27:47.544Z,1010.56
2022-11-26T06:28:47.558Z,1010.58
2022-11-26T06:29:47.522Z,1010.58
2022-11-26T06:30:47.520Z,1010.56
2022-11-26T06:31:47.634Z,1010.57
2022-11-26T06:32:47.503Z,1010.60
2022-11-26T06:33:47.491Z,1010.62
2022-11-26T06:34:52.583Z,1010.66
2022-11-26T06:35:49.478Z,1010.69
2022-11-26T06:36:47.469Z,1010.75
2022-11-26T06:37:47.468Z,1010.75
2022-11-26T06:38:47.450Z,1010.78
2022-11-26T06:39:47.472Z,1010.81
2022-11-26T06:40:47.431Z,1010.80
2022-11-26T06:41:47.429Z,1010.81
2022-11-26T06:42:47.427Z,1010.77
2022-11-26T06:43:47.405Z,1010.82
2022-11-26T06:44:47.434Z,1010.88
2022-11-26T06:45:47.473Z,1010.93
2022-11-26T06:46:47.420Z,1010.93
2022-11-26T06:47:47.382Z,1010.93
2022-11-26T06:48:47.372Z,1010.95
2022-11-26T06:49:47.400Z,1011.01
2022-11-26T06:50:47.358Z,1010.94
2022-11-26T06:51:47.345Z,1010.96
2022-11-26T06:52:47.854Z,1011.00
2022-11-26T06:53:47.335Z,1011.00
2022-11-26T06:54:47.347Z,1011.01
2022-11-26T06:55:47.320Z,1011.06
2022-11-26T06:56:47.302Z,1011.09
2022-11-26T06:57:47.306Z,1011.01
2022-11-26T06:58:47.298Z,1011.00
2022-11-26T06:59:47.307Z,1011.05
2022-11-26T07:00:48.278Z,1011.04
2022-11-26T07:01:47.326Z,1011.09
2022-11-26T07:02:47.297Z,1011.04
2022-11-26T07:03:47.245Z,1010.96
2022-11-26T07:04:47.281Z,1011.06
2022-11-26T07:05:47.249Z,1011.00
2022-11-26T07:06:47.235Z,1011.02
2022-11-26T07:07:47.338Z,1011.10
2022-11-26T07:08:47.218Z,1011.10
2022-11-26T07:09:47.243Z,1011.19
2022-11-26T07:10:49.236Z,1011.18
2022-11-26T07:11:48.180Z,1011.21
2022-11-26T07:12:47.180Z,1011.21
2022-11-26T07:13:47.181Z,1011.21
2022-11-26T07:14:47.178Z,1011.24
2022-11-26T07:15:47.257Z,1011.25
2022-11-26T07:16:47.137Z,1011.31
2022-11-26T07:17:47.142Z,1011.34
2022-11-26T07:18:47.131Z,1011.32
2022-11-26T07:19:47.141Z,1011.36
2022-11-26T07:20:47.105Z,1011.36
2022-11-26T07:21:47.112Z,1011.38
2022-11-26T07:22:47.096Z,1011.41
2022-11-26T07:23:47.081Z,1011.34
2022-11-26T07:24:47.346Z,1011.41
2022-11-26T07:26:01.582Z,1011.42
2022-11-26T07:26:47.049Z,1011.41
2022-11-26T07:27:47.047Z,1011.41
2022-11-26T07:28:47.043Z,1011.44
2022-11-26T07:29:47.059Z,1011.45
2022-11-26T07:30:47.022Z,1011.43
2022-11-26T07:31:47.079Z,1011.47
2022-11-26T07:32:46.999Z,1011.47
2022-11-26T07:33:46.995Z,1011.52
2022-11-26T07:34:47.020Z,1011.49
2022-11-26T07:35:46.981Z,1011.60
2022-11-26T07:36:46.974Z,1011.58
2022-11-26T07:37:46.967Z,1011.65
2022-11-26T07:38:46.951Z,1011.61
2022-11-26T07:39:46.981Z,1011.57
2022-11-26T07:40:46.951Z,1011.58
2022-11-26T07:41:46.925Z,1011.64
2022-11-26T07:42:51.841Z,1011.66
2022-11-26T07:43:48.900Z,1011.77
2022-11-26T07:44:47.925Z,1011.69
2022-11-26T07:45:46.933Z,1011.77
2022-11-26T07:46:46.884Z,1011.75
2022-11-26T07:47:46.881Z,1011.74
2022-11-26T07:48:46.870Z,1011.79
2022-11-26T07:49:46.891Z,1011.82
2022-11-26T07:50:46.855Z,1011.83
2022-11-26T07:51:46.849Z,1011.85
2022-11-26T07:52:46.859Z,1011.84
2022-11-26T07:53:46.859Z,1011.88
2022-11-26T07:54:46.850Z,1011.93
2022-11-26T07:55:46.810Z,1011.89
2022-11-26T07:56:46.804Z,1011.89
2022-11-26T07:57:46.798Z,1011.90
2022-11-26T07:58:46.791Z,1011.92
2022-11-26T07:59:46.807Z,1011.98
2022-11-26T08:00:49.714Z,1011.90
2022-11-26T08:01:47.797Z,1011.96
2022-11-26T08:02:46.778Z,1012.02
2022-11-26T08:03:46.751Z,1011.99
2022-11-26T08:04:46.764Z,1012.04
2022-11-26T08:05:46.729Z,1012.06
2022-11-26T08:06:46.726Z,1012.02
2022-11-26T08:07:46.782Z,1012.01
2022-11-26T08:08:46.702Z,1012.09
2022-11-26T08:09:46.729Z,1012.07
2022-11-26T08:10:46.691Z,1012.08
2022-11-26T08:11:46.682Z,1012.03
2022-11-26T08:12:46.671Z,1012.03
2022-11-26T08:13:46.665Z,1012.09
2022-11-26T08:14:46.711Z,1012.08
2022-11-26T08:15:46.647Z,1012.06
2022-11-26T08:16:46.706Z,1012.07
2022-11-26T08:17:46.626Z,1012.08
2022-11-26T08:18:46.610Z,1012.06
2022-11-26T08:19:46.638Z,1012.04
2022-11-26T08:20:46.602Z,1012.05
2022-11-26T08:21:46.585Z,1012.02
2022-11-26T08:22:46.589Z,1012.01
2022-11-26T08:23:46.574Z,1012.04
2022-11-26T08:24:46.584Z,1012.05
2022-11-26T08:26:14.341Z,1011.99
2022-11-26T08:26:48.547Z,1012.03
2022-11-26T08:27:46.540Z,1012.04
2022-11-26T08:28:46.527Z,1012.03
2022-11-26T08:29:46.550Z,1012.12
2022-11-26T08:30:46.512Z,1012.09
2022-11-26T08:31:46.905Z,1012.15
2022-11-26T08:32:46.489Z,1012.16
2022-11-26T08:33:46.483Z,1012.21
2022-11-26T08:34:46.505Z,1012.22
2022-11-26T08:36:08.150Z,1012.20
2022-11-26T08:36:48.458Z,1012.23
2022-11-26T08:37:46.451Z,1012.22
2022-11-26T08:38:47.444Z,1012.24
2022-11-26T08:39:46.467Z,1012.24
2022-11-26T08:40:46.427Z,1012.22
2022-11-26T08:41:51.608Z,1012.21
2022-11-26T08:42:48.404Z,1012.19
2022-11-26T08:44:48.426Z,1012.19
2022-11-26T08:45:46.456Z,1012.18
2022-11-26T08:46:46.392Z,1012.13
2022-11-26T08:47:46.367Z,1012.20
2022-11-26T08:48:46.360Z,1012.20
2022-11-26T08:49:46.392Z,1012.17
2022-11-26T08:50:46.347Z,1012.19
2022-11-26T08:51:46.346Z,1012.16
2022-11-26T08:52:46.327Z,1012.18
2022-11-26T08:53:46.317Z,1012.15
2022-11-26T08:54:46.662Z,1012.19
2022-11-26T08:55:59.608Z,1012.17
2022-11-26T08:56:48.289Z,1012.20
2022-11-26T08:57:46.287Z,1012.15
2022-11-26T08:58:46.271Z,1012.15
2022-11-26T08:59:46.302Z,1012.17
2022-11-26T09:00:46.252Z,1012.18
2022-11-26T09:01:46.326Z,1012.11
2022-11-26T09:02:46.271Z,1012.10
2022-11-26T09:03:46.233Z,1012.11
2022-11-26T09:04:46.263Z,1012.09
2022-11-26T09:05:46.228Z,1012.12
2022-11-26T09:06:46.209Z,1012.08
2022-11-26T09:07:49.056Z,1012.09
2022-11-26T09:08:47.192Z,1012.05
2022-11-26T09:09:46.178Z,1012.04
2022-11-26T09:10:46.204Z,1012.01
2022-11-26T09:11:46.178Z,1012.10
2022-11-26T09:12:46.171Z,1012.13
2022-11-26T09:13:46.145Z,1012.08
2022-11-26T09:14:46.170Z,1012.08
2022-11-26T09:15:46.174Z,1012.14
2022-11-26T09:16:46.192Z,1012.15
2022-11-26T09:17:46.113Z,1012.11
2022-11-26T09:18:46.117Z,1012.17
2022-11-26T09:19:46.109Z,1012.14
2022-11-26T09:20:46.317Z,1012.17
2022-11-26T09:21:46.092Z,1012.14
2022-11-26T09:22:46.080Z,1012.18
2022-11-26T09:23:46.074Z,1012.18
2022-11-26T09:24:46.062Z,1012.12
2022-11-26T09:25:46.244Z,1012.10
2022-11-26T09:26:47.032Z,1012.09
2022-11-26T09:27:47.034Z,1012.16
2022-11-26T09:28:46.025Z,1012.08
2022-11-26T09:29:46.024Z,1012.16
2022-11-26T09:30:46.051Z,1012.12
2022-11-26T09:32:15.429Z,1012.18
2022-11-26T09:33:34.459Z,1012.11
2022-11-26T09:33:45.982Z,1012.14
2022-11-26T09:34:45.977Z,1012.21
2022-11-26T09:35:45.997Z,1012.16
2022-11-26T09:36:46.963Z,1012.20
2022-11-26T09:37:51.226Z,1012.17
2022-11-26T09:38:47.956Z,1012.23
2022-11-26T09:39:45.938Z,1012.19
2022-11-26T09:40:45.959Z,1012.17
2022-11-26T09:41:45.914Z,1012.14
2022-11-26T09:42:45.905Z,1012.17
2022-11-26T09:43:47.296Z,1012.25
2022-11-26T09:44:45.891Z,1012.27
2022-11-26T09:45:45.975Z,1012.26
2022-11-26T09:47:10.494Z,1012.32
2022-11-26T09:47:47.862Z,1012.31
2022-11-26T09:48:45.859Z,1012.30
2022-11-26T09:49:45.850Z,1012.31
2022-11-26T09:50:45.871Z,1012.31
2022-11-26T09:51:45.831Z,1012.22
2022-11-26T09:52:45.828Z,1012.22
2022-11-26T09:53:45.809Z,1012.21
2022-11-26T09:54:45.814Z,1012.24
2022-11-26T09:55:45.829Z,1012.24
2022-11-26T09:56:45.791Z,1012.30
2022-11-26T09:57:45.779Z,1012.22
2022-11-26T09:58:45.774Z,1012.28
2022-11-26T09:59:45.770Z,1012.28
2022-11-26T10:00:45.836Z,1012.24
2022-11-26T10:01:45.838Z,1012.29
2022-11-26T10:02:45.804Z,1012.27
2022-11-26T10:03:45.730Z,1012.24
2022-11-26T10:04:45.721Z,1012.25
2022-11-26T10:05:45.750Z,1012.20
2022-11-26T10:06:45.703Z,1012.21
2022-11-26T10:07:45.802Z,1012.23
2022-11-26T10:08:45.690Z,1012.26
2022-11-26T10:09:45.677Z,1012.23
2022-11-26T10:10:45.712Z,1012.23
2022-11-26T10:11:45.673Z,1012.24
2022-11-26T10:13:10.736Z,1012.29
2022-11-26T10:13:47.668Z,1012.23
2022-11-26T10:14:45.636Z,1012.17
2022-11-26T10:15:45.659Z,1012.21
2022-11-26T10:16:45.678Z,1012.15
2022-11-26T10:17:45.621Z,1012.20
2022-11-26T10:18:45.604Z,1012.19
2022-11-26T10:19:45.595Z,1012.18
2022-11-26T10:20:45.630Z,1012.17
2022-11-26T10:21:58.612Z,1012.19
2022-11-26T10:22:50.490Z,1012.21
2022-11-26T10:23:46.569Z,1012.22
2022-11-26T10:24:45.566Z,1012.29
2022-11-26T10:25:45.745Z,1012.25
2022-11-26T10:26:45.543Z,1012.27
2022-11-26T10:27:45.545Z,1012.30
2022-11-26T10:28:45.541Z,1012.28
2022-11-26T10:29:45.522Z,1012.27
2022-11-26T10:30:45.543Z,1012.31
2022-11-26T10:31:45.603Z,1012.24
2022-11-26T10:32:45.491Z,1012.32
2022-11-26T10:33:46.490Z,1012.25
2022-11-26T10:34:45.936Z,1012.23
2022-11-26T10:35:45.475Z,1012.32
2022-11-26T10:36:45.494Z,1012.30
2022-11-26T10:37:45.454Z,1012.27
2022-11-26T10:38:45.446Z,1012.26
2022-11-26T10:39:45.431Z,1012.20
2022-11-26T10:40:45.430Z,1012.22
2022-11-26T10:41:45.448Z,1012.19
2022-11-26T10:42:45.403Z,1012.30
2022-11-26T10:43:45.402Z,1012.25
2022-11-26T10:44:45.395Z,1012.24
2022-11-26T10:45:45.393Z,1012.24
2022-11-26T10:46:45.451Z,1012.19
2022-11-26T10:47:45.363Z,1012.18
2022-11-26T10:48:45.358Z,1012.17
2022-11-26T10:49:45.349Z,1012.18
2022-11-26T10:50:47.846Z,1012.17
2022-11-26T10:51:46.359Z,1012.23
2022-11-26T10:52:45.329Z,1012.26
2022-11-26T10:53:45.311Z,1012.22
2022-11-26T10:54:45.302Z,1012.33
2022-11-26T10:55:45.308Z,1012.25
2022-11-26T10:56:45.348Z,1012.31
2022-11-26T10:57:45.281Z,1012.27
2022-11-26T10:58:45.277Z,1012.29
2022-11-26T10:59:45.264Z,1012.19
2022-11-26T11:00:45.280Z,1012.18
2022-11-26T11:01:45.308Z,1012.25
2022-11-26T11:02:45.273Z,1012.24
2022-11-26T11:04:07.167Z,1012.24
2022-11-26T11:04:47.517Z,1012.30
2022-11-26T11:05:45.213Z,1012.29
2022-11-26T11:06:45.223Z,1012.38
2022-11-26T11:07:45.279Z,1012.34
2022-11-26T11:08:45.183Z,1012.37
2022-11-26T11:09:45.179Z,1012.33
2022-11-26T11:10:45.166Z,1012.39
2022-11-26T11:11:45.193Z,1012.37
2022-11-26T11:12:45.145Z,1012.36
2022-11-26T11:13:45.171Z,1012.31
2022-11-26T11:14:45.667Z,1012.33
2022-11-26T11:15:45.125Z,1012.34
2022-11-26T11:16:45.167Z,1012.35
2022-11-26T11:17:45.126Z,1012.34
2022-11-26T11:18:45.107Z,1012.41
2022-11-26T11:19:45.092Z,1012.38
2022-11-26T11:20:45.085Z,1012.35
2022-11-26T11:21:48.158Z,1012.40
2022-11-26T11:22:46.108Z,1012.27
2022-11-26T11:24:09.692Z,1012.36
2022-11-26T11:24:47.061Z,1012.29
2022-11-26T11:25:45.040Z,1012.27
2022-11-26T11:26:45.033Z,1012.26
2022-11-26T11:27:45.054Z,1012.29
2022-11-26T11:28:45.010Z,1012.24
2022-11-26T11:29:45.006Z,1012.19
2022-11-26T11:30:44.998Z,1012.20
2022-11-26T11:31:45.055Z,1012.14
2022-11-26T11:32:45.010Z,1012.20
2022-11-26T11:33:44.982Z,1012.22
2022-11-26T11:34:44.976Z,1012.19
2022-11-26T11:35:44.954Z,1012.17
2022-11-26T11:36:44.945Z,1012.23
2022-11-26T11:37:44.983Z,1012.16
2022-11-26T11:38:44.931Z,1012.16
2022-11-26T11:39:44.922Z,1012.23
2022-11-26T11:40:44.928Z,1012.19
2022-11-26T11:41:44.912Z,1012.17
2022-11-26T11:42:44.930Z,1012.16
2022-11-26T11:43:44.889Z,1012.17
2022-11-26T11:44:44.878Z,1012.17
2022-11-26T11:45:49.981Z,1012.10
2022-11-26T11:46:46.867Z,1012.13
2022-11-26T11:47:44.876Z,1012.17
2022-11-26T11:48:44.848Z,1012.12
2022-11-26T11:49:44.821Z,1012.11
2022-11-26T11:50:45.822Z,1012.17
2022-11-26T11:51:44.817Z,1012.02
2022-11-26T11:52:44.837Z,1012.02
2022-11-26T11:53:44.798Z,1012.06
2022-11-26T11:54:44.789Z,1012.05
2022-11-26T11:55:44.783Z,1012.07
2022-11-26T11:56:44.778Z,1012.03
2022-11-26T11:57:44.796Z,1012.06
2022-11-26T11:58:44.756Z,1012.03
2022-11-26T11:59:44.746Z,1011.99
2022-11-26T12:00:44.742Z,1012.01
2022-11-26T12:01:44.791Z,1012.00
2022-11-26T12:02:44.749Z,1012.00
2022-11-26T12:03:44.716Z,1012.03
2022-11-26T12:04:44.772Z,1011.97
2022-11-26T12:05:44.701Z,1012.00
2022-11-26T12:06:44.684Z,1011.91
2022-11-26T12:07:44.800Z,1011.98